Gerton, NC

07:02 PM EDT on Ottubru 22, 2014 (GMT -0400)
Little Bearwallow MOUNTAIN | Change Station
CLOSE
Current Station
Personal Weather Stations
Location: Hendersonville, NC
Elevation: 2820 ft
Nearby Weather Stations

Elev 2820 ft 35.44 °N, 82.35 °W | Updated 59 seconds ago

ċar
ċar
46.1 °F
Feels Like 46 °F
N
3.0
rih varjabbli rih from Grigal
Gusts 0.0 mph

Illum
High -- | Low -- °F
--% Chance of Precip.
Yesterday
High -- | Low -- °F
Precip. -- in
7:41 AM 6:45 PM
Waning Crescent, 1% visible
pressjoni 30.13 in
vizibilita 10.0 mili
s imsahhab 3800 ft
kesha tar-rih 46 °F
punt ta' nida 37 °F
umdita 71%
Rainfall 0.00 in
Snow Depth Not available.
UV 0 out of 12
Pollen 3.10 out of 12
Ozone Good
PM2.5 Good
Flu Activity Sporadic
METAR KAVL 222254Z 33015G21KT 10SM OVC038 11/03 A3014 RMK AO2 SLP203 T01060028

More Conditions Fewer Conditions

pressjoni 30.13 in
vizibilita 10.0 mili
s imsahhab 3800 ft
kesha tar-rih 46 °F
punt ta' nida 37 °F
umdita 71%
Rainfall 0.00 in
Snow Depth Not available.
UV 0 out of 12
Pollen 3.10 out of 12
Ozone Good
PM2.5 Good
Flu Activity Sporadic
METAR KAVL 222254Z 33015G21KT 10SM OVC038 11/03 A3014 RMK AO2 SLP203 T01060028

More Conditions Fewer Conditions

10-Day Weather Forecast

Almanac

Astronomy

Oct. 22, 2014 Rise Set
Actual Time 7:41 AM EDT 6:45 PM EDT
Civil Twilight 7:15 AM EDT 7:11 PM EDT
Nautical Twilight 6:46 AM EDT 7:40 PM EDT
Astronomical Twilight 6:16 AM EDT 8:10 PM EDT
Moon 6:24 AM EDT 6:09 PM EDT
Length Of Visible Light 11h 55m
Length of Day
11h 03m
Tomorrow will be 2m 5s shorter.
Waning Crescent, 1% of the Moon is Illuminated
Illum
Waning Crescent
Oct 23
New
Oct 30
First Quarter
Nov 6
Full
Nov 14
Last Quarter

Today's Extremes

State Highs State Lows

Community

WunderPhotos

Upload Photos

1,764,071 photos uploaded!

WunderBlogs® & News

Nearby

Air Quality

  Air Quality AQ Index Pollutant
Yesterday Good
OZONE
Yesterday Good
PM2.5
Current Good
PM2.5
Current Good
OZONE
L-Erbgha Good
OZONE
L-Erbgha Good
PM2.5
Il-Hamis Good
PM2.5
Il-Hamis Good
OZONE
Il-Gimgha Good
PM2.5
Il-Gimgha Good
OZONE
Is-Sibt Good
PM2.5
Is-Sibt Good
OZONE

Snow Depth

Station Depth Elevation
No new snow has been reported.

Earthquake Activity

City Distance Mag. Time & Date
No recent earthquake activity has been reported nearby.
Minimum magnitude displayed is 2.5.

Coastal Water Temperatures

Post temperatura
No Stations Reporting

Nearby Weather Stations